createdAt,value
2019-02-24T00:02:07.674Z,7.43
2019-02-24T00:04:36.552Z,6.70
2019-02-24T00:07:05.129Z,7.07
2019-02-24T00:09:33.760Z,7.23
2019-02-24T00:12:02.414Z,7.60
2019-02-24T00:14:31.027Z,10.03
2019-02-24T00:16:59.597Z,11.17
2019-02-24T00:19:28.525Z,8.00
2019-02-24T00:21:57.107Z,7.60
2019-02-24T00:24:25.739Z,7.47
2019-02-24T00:26:54.382Z,7.27
2019-02-24T00:29:23.062Z,7.30
2019-02-24T00:31:51.649Z,7.13
2019-02-24T00:34:20.246Z,7.03
2019-02-24T00:36:48.863Z,6.43
2019-02-24T00:39:17.490Z,7.17
2019-02-24T00:41:46.067Z,6.70
2019-02-24T00:44:14.668Z,6.20
2019-02-24T00:46:43.243Z,6.30
2019-02-24T00:49:12.335Z,6.90
2019-02-24T00:51:40.930Z,6.57
2019-02-24T00:54:09.518Z,6.37
2019-02-24T00:56:38.171Z,7.17
2019-02-24T00:59:06.779Z,6.00
2019-02-24T01:01:35.363Z,6.23
2019-02-24T01:04:03.978Z,6.37
2019-02-24T01:06:32.584Z,6.60
2019-02-24T01:09:01.172Z,6.03
2019-02-24T01:11:29.771Z,6.07
2019-02-24T01:13:58.355Z,6.70
2019-02-24T01:16:27.303Z,6.07
2019-02-24T01:18:55.893Z,6.33
2019-02-24T01:21:24.509Z,6.40
2019-02-24T01:23:53.096Z,6.30
2019-02-24T01:26:22.013Z,7.20
2019-02-24T01:28:50.603Z,7.03
2019-02-24T01:31:19.211Z,7.27
2019-02-24T01:33:47.791Z,6.70
2019-02-24T01:36:16.416Z,6.10
2019-02-24T01:38:45.061Z,6.10
2019-02-24T01:41:13.700Z,6.07
2019-02-24T01:43:42.268Z,5.97
2019-02-24T01:46:10.878Z,6.77
2019-02-24T01:48:39.451Z,7.37
2019-02-24T01:51:08.503Z,7.23
2019-02-24T01:53:37.076Z,7.17
2019-02-24T01:56:05.696Z,7.17
2019-02-24T01:58:35.387Z,6.53
2019-02-24T02:01:04.086Z,6.77
2019-02-24T02:03:32.683Z,6.60
2019-02-24T02:06:01.326Z,6.67
2019-02-24T02:08:29.908Z,7.40
2019-02-24T02:10:58.506Z,6.50
2019-02-24T02:13:27.084Z,6.63
2019-02-24T02:15:55.693Z,6.43
2019-02-24T02:18:24.430Z,6.90
2019-02-24T02:20:53.117Z,6.03
2019-02-24T02:23:21.977Z,6.27
2019-02-24T02:25:50.591Z,5.77
2019-02-24T02:28:19.148Z,6.10
2019-02-24T02:30:47.775Z,6.10
2019-02-24T02:33:16.368Z,6.67
2019-02-24T02:35:44.978Z,5.57
2019-02-24T02:38:15.170Z,4.73
2019-02-24T02:40:43.774Z,6.33
2019-02-24T02:43:12.363Z,5.60
2019-02-24T02:45:41.041Z,5.70
2019-02-24T02:48:09.614Z,5.77
2019-02-24T02:50:38.225Z,5.80
2019-02-24T02:53:06.795Z,6.20
2019-02-24T02:55:35.425Z,6.73
2019-02-24T02:58:04.003Z,6.43
2019-02-24T03:00:35.324Z,5.17
2019-02-24T03:03:04.023Z,5.57
2019-02-24T03:05:34.501Z,6.00
2019-02-24T03:08:05.018Z,5.63
2019-02-24T03:10:35.148Z,5.60
2019-02-24T03:13:03.712Z,6.33
2019-02-24T03:15:32.329Z,5.83
2019-02-24T03:18:00.897Z,6.33
2019-02-24T03:20:29.503Z,6.63
2019-02-24T03:22:58.074Z,6.50
2019-02-24T03:25:26.726Z,5.27
2019-02-24T03:27:55.305Z,5.73
2019-02-24T03:30:24.193Z,6.10
2019-02-24T03:32:52.856Z,6.37
2019-02-24T03:35:21.451Z,6.23
2019-02-24T03:37:50.024Z,5.77
2019-02-24T03:40:18.607Z,5.17
2019-02-24T03:42:47.214Z,6.07
2019-02-24T03:45:16.077Z,5.90
2019-02-24T03:47:44.692Z,6.07
2019-02-24T03:50:13.861Z,6.00
2019-02-24T03:52:42.467Z,6.20
2019-02-24T03:55:11.115Z,6.10
2019-02-24T03:57:40.007Z,6.07
2019-02-24T04:00:08.738Z,5.90
2019-02-24T04:02:37.408Z,5.97
2019-02-24T04:05:06.360Z,6.33
2019-02-24T04:07:34.961Z,6.53
2019-02-24T04:10:03.706Z,6.10
2019-02-24T04:12:32.296Z,6.20
2019-02-24T04:15:00.886Z,6.40
2019-02-24T04:17:29.482Z,7.37
2019-02-24T04:19:58.371Z,6.40
2019-02-24T04:22:26.984Z,6.33
2019-02-24T04:24:55.592Z,6.50
2019-02-24T04:27:24.213Z,6.73
2019-02-24T04:29:52.806Z,6.33
2019-02-24T04:32:21.411Z,6.03
2019-02-24T04:34:49.999Z,6.20
2019-02-24T04:37:18.612Z,5.97
2019-02-24T04:39:47.462Z,6.50
2019-02-24T04:42:16.079Z,5.97
2019-02-24T04:44:44.679Z,6.07
2019-02-24T04:47:13.269Z,6.27
2019-02-24T04:49:41.853Z,5.97
2019-02-24T04:52:10.557Z,6.83
2019-02-24T04:54:39.102Z,6.23
2019-02-24T04:57:08.482Z,5.90
2019-02-24T04:59:37.067Z,6.43
2019-02-24T05:02:06.016Z,5.90
2019-02-24T05:04:37.634Z,6.67
2019-02-24T05:07:06.268Z,6.30
2019-02-24T05:09:34.860Z,6.10
2019-02-24T05:12:03.851Z,5.73
2019-02-24T05:14:32.420Z,6.13
2019-02-24T05:17:01.031Z,5.73
2019-02-24T05:19:29.639Z,6.33
2019-02-24T05:21:58.243Z,6.23
2019-02-24T05:24:26.823Z,6.90
2019-02-24T05:26:55.446Z,6.27
2019-02-24T05:29:24.031Z,6.53
2019-02-24T05:31:52.656Z,6.73
2019-02-24T05:34:21.253Z,6.67
2019-02-24T05:36:49.877Z,6.80
2019-02-24T05:39:18.459Z,5.70
2019-02-24T05:41:47.069Z,6.10
2019-02-24T05:44:15.668Z,7.10
2019-02-24T05:46:44.259Z,7.20
2019-02-24T05:49:12.830Z,6.60
2019-02-24T05:51:41.437Z,6.13
2019-02-24T05:54:10.101Z,6.77
2019-02-24T05:56:40.379Z,6.77
2019-02-24T05:59:08.950Z,7.00
2019-02-24T06:01:37.565Z,7.83
2019-02-24T06:04:06.145Z,7.97
2019-02-24T06:06:35.480Z,7.30
2019-02-24T06:09:04.645Z,7.70
2019-02-24T06:11:33.578Z,8.30
2019-02-24T06:14:02.163Z,7.90
2019-02-24T06:16:30.790Z,7.30
2019-02-24T06:18:59.378Z,7.10
2019-02-24T06:21:27.990Z,6.27
2019-02-24T06:23:56.578Z,6.63
2019-02-24T06:26:25.194Z,6.33
2019-02-24T06:28:53.839Z,6.57
2019-02-24T06:31:22.459Z,5.97
2019-02-24T06:33:51.519Z,6.47
2019-02-24T06:36:20.132Z,6.17
2019-02-24T06:38:48.705Z,6.50
2019-02-24T06:41:17.310Z,6.90
2019-02-24T06:43:45.905Z,6.13
2019-02-24T06:46:14.505Z,7.03
2019-02-24T06:48:43.110Z,6.50
2019-02-24T06:51:11.890Z,6.77
2019-02-24T06:53:40.520Z,6.90
2019-02-24T06:56:09.109Z,7.43
2019-02-24T06:58:37.770Z,8.20
2019-02-24T07:01:06.333Z,9.00
2019-02-24T07:03:34.975Z,7.53
2019-02-24T07:06:03.934Z,7.37
2019-02-24T07:08:32.544Z,7.10
2019-02-24T07:11:01.137Z,7.00
2019-02-24T07:13:29.741Z,7.90
2019-02-24T07:15:58.314Z,7.33
2019-02-24T07:18:26.966Z,7.97
2019-02-24T07:20:55.546Z,7.37
2019-02-24T07:23:24.149Z,8.30
2019-02-24T07:25:52.801Z,7.50
2019-02-24T07:28:21.444Z,7.00
2019-02-24T07:30:50.037Z,7.77
2019-02-24T07:33:18.664Z,7.37
2019-02-24T07:35:47.263Z,7.40
2019-02-24T07:38:15.872Z,7.73
2019-02-24T07:40:44.466Z,7.47
2019-02-24T07:43:13.071Z,7.70
2019-02-24T07:45:41.645Z,6.97
2019-02-24T07:48:10.253Z,6.97
2019-02-24T07:50:39.810Z,7.23
2019-02-24T07:53:08.514Z,8.07
2019-02-24T07:55:37.096Z,7.30
2019-02-24T07:58:07.069Z,8.20
2019-02-24T08:00:35.800Z,8.10
2019-02-24T08:03:04.809Z,9.50
2019-02-24T08:05:33.394Z,9.23
2019-02-24T08:08:02.554Z,7.77
2019-02-24T08:10:31.266Z,7.77
2019-02-24T08:12:59.929Z,7.60
2019-02-24T08:15:29.300Z,7.70
2019-02-24T08:17:57.908Z,8.13
2019-02-24T08:20:26.518Z,8.90
2019-02-24T08:22:55.409Z,8.17
2019-02-24T08:25:24.059Z,10.70
2019-02-24T08:27:55.535Z,9.83
2019-02-24T08:30:24.371Z,9.03
2019-02-24T08:32:54.507Z,8.33
2019-02-24T08:35:23.169Z,8.10
2019-02-24T08:37:51.784Z,7.33
2019-02-24T08:40:20.375Z,7.57
2019-02-24T08:42:49.027Z,8.33
2019-02-24T08:45:17.646Z,7.63
2019-02-24T08:47:46.244Z,8.23
2019-02-24T08:50:14.997Z,7.60
2019-02-24T08:52:43.629Z,7.30
2019-02-24T08:55:12.255Z,9.00
2019-02-24T08:57:40.888Z,8.63
2019-02-24T09:00:16.211Z,8.13
2019-02-24T09:02:44.845Z,8.27
2019-02-24T09:05:13.448Z,8.10
2019-02-24T09:07:42.034Z,7.77
2019-02-24T09:10:10.633Z,7.33
2019-02-24T09:12:39.293Z,8.27
2019-02-24T09:15:11.017Z,7.57
2019-02-24T09:17:40.805Z,8.40
2019-02-24T09:20:13.263Z,8.10
2019-02-24T09:22:41.907Z,7.80
2019-02-24T09:25:10.641Z,8.27
2019-02-24T09:27:39.312Z,8.07
2019-02-24T09:30:12.794Z,7.63
2019-02-24T09:32:41.379Z,7.90
2019-02-24T09:35:16.885Z,8.20
2019-02-24T09:37:45.489Z,8.17
2019-02-24T09:40:14.104Z,7.70
2019-02-24T09:42:43.062Z,7.97
2019-02-24T09:45:12.822Z,7.60
2019-02-24T09:47:46.666Z,8.37
2019-02-24T09:50:11.771Z,8.33
2019-02-24T09:52:41.894Z,7.93
2019-02-24T09:55:10.822Z,7.80
2019-02-24T09:57:39.785Z,7.73
2019-02-24T10:00:13.530Z,7.27
2019-02-24T10:02:42.103Z,7.20
2019-02-24T10:05:10.745Z,7.43
2019-02-24T10:07:39.438Z,6.97
2019-02-24T10:10:13.188Z,7.40
2019-02-24T10:12:41.775Z,7.97
2019-02-24T10:15:13.102Z,7.60
2019-02-24T10:17:41.680Z,7.77
2019-02-24T10:20:11.720Z,7.17
2019-02-24T10:22:40.312Z,7.83
2019-02-24T10:25:12.111Z,6.43
2019-02-24T10:27:41.073Z,6.97
2019-02-24T10:30:16.677Z,7.10
2019-02-24T10:32:45.280Z,6.87
2019-02-24T10:35:13.989Z,6.67
2019-02-24T10:37:42.535Z,8.27
2019-02-24T10:40:15.881Z,6.80
2019-02-24T10:42:44.461Z,7.00
2019-02-24T10:45:17.637Z,6.97
2019-02-24T10:47:46.210Z,6.53
2019-02-24T10:50:16.248Z,7.07
2019-02-24T10:52:44.854Z,7.03
2019-02-24T10:55:13.792Z,6.53
2019-02-24T10:57:42.779Z,6.40
2019-02-24T11:00:16.368Z,6.23
2019-02-24T11:02:44.975Z,6.20
2019-02-24T11:05:14.531Z,5.73
2019-02-24T11:07:43.521Z,6.60
2019-02-24T11:10:12.329Z,5.77
2019-02-24T11:12:41.280Z,6.17
2019-02-24T11:15:13.824Z,6.93
2019-02-24T11:17:42.428Z,6.00
2019-02-24T11:20:15.472Z,6.30
2019-02-24T11:22:44.068Z,6.17
2019-02-24T11:25:13.092Z,6.13
2019-02-24T11:27:41.695Z,6.13
2019-02-24T11:30:14.720Z,6.17
2019-02-24T11:32:43.320Z,5.77
2019-02-24T11:35:13.181Z,5.00
2019-02-24T11:37:41.761Z,5.57
2019-02-24T11:40:18.268Z,5.07
2019-02-24T11:42:46.939Z,5.37
2019-02-24T11:45:15.535Z,5.27
2019-02-24T11:47:44.145Z,5.67
2019-02-24T11:50:13.365Z,5.43
2019-02-24T11:52:41.986Z,5.60
2019-02-24T11:55:11.118Z,5.17
2019-02-24T11:57:39.729Z,4.80
2019-02-24T12:00:13.170Z,4.73
2019-02-24T12:02:42.037Z,4.93
2019-02-24T12:05:11.619Z,4.77
2019-02-24T12:07:40.243Z,4.50
2019-02-24T12:10:10.443Z,4.67
2019-02-24T12:12:39.043Z,5.50
2019-02-24T12:15:10.231Z,4.90
2019-02-24T12:17:38.811Z,4.80
2019-02-24T12:20:11.544Z,5.33
2019-02-24T12:22:40.242Z,4.67
2019-02-24T12:25:10.121Z,4.53
2019-02-24T12:27:38.796Z,4.85
2019-02-24T12:30:17.591Z,4.78
2019-02-24T12:32:46.167Z,4.70
2019-02-24T12:35:14.809Z,4.90
2019-02-24T12:37:43.412Z,3.83
2019-02-24T12:40:13.884Z,4.35
2019-02-24T12:42:42.429Z,4.50
2019-02-24T12:45:11.901Z,4.73
2019-02-24T12:47:40.615Z,4.60
2019-02-24T12:50:14.506Z,4.45
2019-02-24T12:52:43.089Z,5.07
2019-02-24T12:55:11.797Z,4.97
2019-02-24T12:57:41.135Z,4.75
2019-02-24T13:00:16.362Z,4.30
2019-02-24T13:02:44.951Z,4.50
2019-02-24T13:05:13.580Z,4.25
2019-02-24T13:07:42.259Z,4.25
2019-02-24T13:10:15.901Z,4.47
2019-02-24T13:12:44.576Z,4.37
2019-02-24T13:15:13.473Z,3.98
2019-02-24T13:17:42.220Z,4.17
2019-02-24T13:20:11.718Z,4.50
2019-02-24T13:22:40.483Z,4.55
2019-02-24T13:25:11.564Z,4.22
2019-02-24T13:27:40.165Z,4.22
2019-02-24T13:30:13.020Z,3.90
2019-02-24T13:32:41.704Z,3.20
2019-02-24T13:35:10.362Z,3.20
2019-02-24T13:37:38.928Z,2.90
2019-02-24T13:40:10.189Z,3.30
2019-02-24T13:42:38.726Z,3.00
2019-02-24T13:45:10.395Z,3.00
2019-02-24T13:47:38.980Z,3.10
2019-02-24T13:50:07.927Z,3.20
2019-02-24T13:52:36.503Z,2.67
2019-02-24T13:55:08.134Z,2.60
2019-02-24T13:57:36.716Z,2.62
2019-02-24T14:00:08.646Z,3.25
2019-02-24T14:02:39.626Z,2.50
2019-02-24T14:05:09.908Z,2.65
2019-02-24T14:07:38.479Z,2.70
2019-02-24T14:10:12.332Z,2.35
2019-02-24T14:12:40.889Z,2.67
2019-02-24T14:15:13.778Z,2.42
2019-02-24T14:17:42.349Z,2.77
2019-02-24T14:20:17.498Z,2.67
2019-02-24T14:22:46.095Z,2.45
2019-02-24T14:25:15.813Z,2.50
2019-02-24T14:27:44.414Z,2.77
2019-02-24T14:30:17.157Z,2.72
2019-02-24T14:35:09.410Z,3.22
2019-02-24T14:37:38.029Z,2.67
2019-02-24T14:40:08.572Z,3.17
2019-02-24T14:42:37.215Z,2.22
2019-02-24T14:45:15.088Z,2.45
2019-02-24T14:47:43.672Z,2.35
2019-02-24T14:50:12.351Z,2.60
2019-02-24T14:52:40.932Z,2.80
2019-02-24T14:55:13.803Z,2.98
2019-02-24T14:57:42.392Z,3.27
2019-02-24T15:00:16.712Z,2.87
2019-02-24T15:02:45.283Z,2.80
2019-02-24T15:05:16.379Z,2.75
2019-02-24T15:07:44.745Z,3.12
2019-02-24T15:10:16.147Z,3.22
2019-02-24T15:12:45.152Z,2.27
2019-02-24T15:15:19.484Z,2.50
2019-02-24T15:17:48.445Z,2.17
2019-02-24T15:20:19.085Z,2.60
2019-02-24T15:22:47.673Z,2.92
2019-02-24T15:25:19.558Z,2.80
2019-02-24T15:27:48.144Z,2.70
2019-02-24T15:30:22.558Z,1.93
2019-02-24T15:32:51.985Z,2.50
2019-02-24T15:35:20.768Z,2.80
2019-02-24T15:37:49.440Z,2.57
2019-02-24T15:40:18.090Z,3.20
2019-02-24T15:42:46.759Z,3.43
2019-02-24T15:45:15.543Z,3.20
2019-02-24T15:47:44.121Z,5.00
2019-02-24T15:50:13.674Z,2.37
2019-02-24T15:52:42.261Z,3.00
2019-02-24T15:55:15.195Z,2.50
2019-02-24T15:57:43.949Z,2.60
2019-02-24T16:00:19.803Z,2.57
2019-02-24T16:02:48.397Z,2.80
2019-02-24T16:05:17.008Z,2.40
2019-02-24T16:07:45.599Z,2.70
2019-02-24T16:10:21.322Z,2.60
2019-02-24T16:12:50.077Z,2.87
2019-02-24T16:15:25.923Z,2.60
2019-02-24T16:17:54.510Z,2.70
2019-02-24T16:20:26.032Z,2.80
2019-02-24T16:22:54.622Z,3.00
2019-02-24T16:25:23.236Z,3.13
2019-02-24T16:27:51.887Z,2.90
2019-02-24T16:30:20.574Z,3.97
2019-02-24T16:32:49.148Z,3.50
2019-02-24T16:35:18.497Z,4.23
2019-02-24T16:37:47.086Z,3.50
2019-02-24T16:40:26.822Z,3.40
2019-02-24T16:42:55.395Z,3.53
2019-02-24T16:45:23.997Z,3.70
2019-02-24T16:47:52.591Z,4.50
2019-02-24T16:50:22.157Z,4.33
2019-02-24T16:52:50.758Z,41.37
2019-02-24T16:55:19.444Z,12.87
2019-02-24T16:57:48.032Z,6.67
2019-02-24T17:00:24.181Z,9.57
2019-02-24T17:02:53.186Z,7.90
2019-02-24T17:05:21.852Z,5.37
2019-02-24T17:07:50.464Z,5.23
2019-02-24T17:10:20.418Z,6.67
2019-02-24T17:12:49.022Z,6.00
2019-02-24T17:15:17.820Z,6.20
2019-02-24T17:17:46.740Z,4.37
2019-02-24T17:20:21.464Z,4.63
2019-02-24T17:22:50.040Z,4.40
2019-02-24T17:25:18.692Z,5.00
2019-02-24T17:27:47.374Z,4.93
2019-02-24T17:30:16.703Z,4.80
2019-02-24T17:32:45.593Z,4.37
2019-02-24T17:35:14.643Z,5.27
2019-02-24T17:37:43.259Z,4.40
2019-02-24T17:40:19.649Z,4.23
2019-02-24T17:42:48.986Z,5.43
2019-02-24T17:45:17.951Z,5.00
2019-02-24T17:47:46.626Z,5.77
2019-02-24T17:50:16.464Z,5.60
2019-02-24T17:52:45.074Z,5.87
2019-02-24T17:55:14.492Z,5.43
2019-02-24T17:57:43.107Z,5.10
2019-02-24T18:00:36.069Z,4.90
2019-02-24T18:03:04.685Z,3.50
2019-02-24T18:05:33.269Z,3.27
2019-02-24T18:08:01.882Z,3.67
2019-02-24T18:10:30.486Z,4.17
2019-02-24T18:12:59.188Z,4.67
2019-02-24T18:15:27.768Z,3.83
2019-02-24T18:17:56.370Z,3.83
2019-02-24T18:20:25.116Z,4.70
2019-02-24T18:22:53.725Z,4.63
2019-02-24T18:25:22.400Z,6.30
2019-02-24T18:27:51.004Z,4.87
2019-02-24T18:30:24.348Z,5.13
2019-02-24T18:32:53.015Z,4.17
2019-02-24T18:35:21.652Z,4.20
2019-02-24T18:37:50.252Z,5.07
2019-02-24T18:40:18.829Z,4.50
2019-02-24T18:42:47.448Z,5.03
2019-02-24T18:45:16.394Z,5.53
2019-02-24T18:47:44.975Z,5.53
2019-02-24T18:50:19.069Z,5.47
2019-02-24T18:52:47.914Z,7.53
2019-02-24T18:55:16.522Z,6.10
2019-02-24T18:57:45.097Z,5.80
2019-02-24T19:00:18.881Z,4.80
2019-02-24T19:02:47.568Z,5.20
2019-02-24T19:05:16.251Z,6.00
2019-02-24T19:07:45.201Z,5.83
2019-02-24T19:10:21.215Z,5.70
2019-02-24T19:12:49.785Z,5.50
2019-02-24T19:15:19.929Z,6.30
2019-02-24T19:17:48.820Z,6.72
2019-02-24T19:20:19.465Z,5.30
2019-02-24T19:22:48.104Z,6.67
2019-02-24T19:25:17.147Z,5.77
2019-02-24T19:27:46.176Z,4.53
2019-02-24T19:30:16.989Z,5.67
2019-02-24T19:32:45.821Z,5.07
2019-02-24T19:35:15.650Z,5.53
2019-02-24T19:37:44.399Z,5.43
2019-02-24T19:40:18.089Z,5.30
2019-02-24T19:42:47.056Z,5.03
2019-02-24T19:45:19.857Z,4.80
2019-02-24T19:47:48.427Z,5.63
2019-02-24T19:50:20.153Z,5.43
2019-02-24T19:52:49.071Z,5.40
2019-02-24T19:55:18.187Z,5.90
2019-02-24T19:57:46.874Z,5.47
2019-02-24T20:00:18.155Z,5.57
2019-02-24T20:02:46.733Z,5.93
2019-02-24T20:05:15.482Z,5.70
2019-02-24T20:07:44.158Z,5.33
2019-02-24T20:10:18.845Z,5.87
2019-02-24T20:12:47.420Z,6.07
2019-02-24T20:15:16.850Z,5.63
2019-02-24T20:17:45.430Z,5.33
2019-02-24T20:20:15.667Z,5.80
2019-02-24T20:22:44.284Z,5.23
2019-02-24T20:25:15.971Z,5.47
2019-02-24T20:27:44.576Z,6.30
2019-02-24T20:30:16.097Z,6.40
2019-02-24T20:32:44.651Z,7.90
2019-02-24T20:35:13.377Z,7.40
2019-02-24T20:37:42.079Z,8.27
2019-02-24T20:40:11.757Z,7.07
2019-02-24T20:42:40.337Z,7.43
2019-02-24T20:45:14.748Z,8.23
2019-02-24T20:47:43.446Z,8.67
2019-02-24T20:50:17.340Z,8.20
2019-02-24T20:52:45.912Z,8.73
2019-02-24T20:55:14.650Z,9.63
2019-02-24T20:57:43.226Z,9.20
2019-02-24T21:00:20.679Z,9.13
2019-02-24T21:02:49.272Z,13.83
2019-02-24T21:05:17.951Z,21.33
2019-02-24T21:07:46.572Z,15.90
2019-02-24T21:10:15.182Z,15.07
2019-02-24T21:12:43.841Z,11.90
2019-02-24T21:15:17.600Z,10.47
2019-02-24T21:17:46.293Z,11.23
2019-02-24T21:20:20.387Z,13.07
2019-02-24T21:22:50.642Z,10.47
2019-02-24T21:25:19.627Z,9.50
2019-02-24T21:27:48.211Z,7.83
2019-02-24T21:30:18.727Z,8.63
2019-02-24T21:32:47.297Z,9.23
2019-02-24T21:35:17.387Z,9.90
2019-02-24T21:37:46.400Z,9.97
2019-02-24T21:40:19.729Z,10.93
2019-02-24T21:42:48.321Z,10.00
2019-02-24T21:45:27.876Z,9.70
2019-02-24T21:47:56.816Z,9.57
2019-02-24T21:50:26.083Z,9.47
2019-02-24T21:52:54.672Z,8.90
2019-02-24T21:55:23.338Z,8.53
2019-02-24T21:57:52.009Z,8.20
2019-02-24T22:00:25.693Z,7.23
2019-02-24T22:02:54.292Z,7.47
2019-02-24T22:05:22.886Z,7.63
2019-02-24T22:07:51.510Z,7.47
2019-02-24T22:10:20.289Z,7.80
2019-02-24T22:12:49.021Z,7.57
2019-02-24T22:15:20.686Z,8.07
2019-02-24T22:17:51.165Z,7.97
2019-02-24T22:20:19.762Z,7.07
2019-02-24T22:22:48.375Z,8.20
2019-02-24T22:25:17.106Z,7.23
2019-02-24T22:27:45.957Z,7.50
2019-02-24T22:30:22.341Z,7.90
2019-02-24T22:32:51.117Z,7.47
2019-02-24T22:35:20.192Z,7.70
2019-02-24T22:37:48.868Z,7.40
2019-02-24T22:40:17.806Z,8.00
2019-02-24T22:42:46.707Z,7.30
2019-02-24T22:45:17.252Z,8.50
2019-02-24T22:47:46.233Z,8.60
2019-02-24T22:50:15.783Z,7.90
2019-02-24T22:52:45.188Z,7.80
2019-02-24T22:55:15.925Z,6.80
2019-02-24T22:57:44.599Z,7.23
2019-02-24T23:00:48.279Z,6.77
2019-02-24T23:03:16.968Z,7.43
2019-02-24T23:05:46.114Z,7.73
2019-02-24T23:08:14.975Z,7.90
2019-02-24T23:10:43.563Z,9.40
2019-02-24T23:13:12.631Z,9.03
2019-02-24T23:15:41.226Z,10.77
2019-02-24T23:18:09.831Z,10.10
2019-02-24T23:20:38.483Z,9.90
2019-02-24T23:23:07.172Z,7.83
2019-02-24T23:25:35.776Z,7.53
2019-02-24T23:28:04.450Z,8.27
2019-02-24T23:30:33.556Z,7.73
2019-02-24T23:33:02.156Z,7.10
2019-02-24T23:35:30.771Z,7.47
2019-02-24T23:37:59.377Z,7.53
2019-02-24T23:40:28.015Z,7.50
2019-02-24T23:42:56.680Z,7.90
2019-02-24T23:45:25.270Z,8.07
2019-02-24T23:47:53.880Z,8.73
2019-02-24T23:50:22.500Z,8.30
2019-02-24T23:52:51.123Z,8.03
2019-02-24T23:55:21.396Z,8.87
2019-02-24T23:57:50.034Z,6.70
